sensor_id;sensor_type;location;lat;lon;timestamp;pressure;altitude;pressure_sealevel;temperature;humidity
7832;BME280;3961;42.058;25.586;2023-07-20T00:00:48;99762.13;;;28.43;58.53
7832;BME280;3961;42.058;25.586;2023-07-20T00:03:19;99766.78;;;28.39;58.28
7832;BME280;3961;42.058;25.586;2023-07-20T00:05:48;99761.94;;;28.16;58.56
7832;BME280;3961;42.058;25.586;2023-07-20T00:08:16;99764.66;;;28.03;59.26
7832;BME280;3961;42.058;25.586;2023-07-20T00:10:42;99776.69;;;28.04;59.38
7832;BME280;3961;42.058;25.586;2023-07-20T00:13:08;99767.97;;;28.05;59.41
7832;BME280;3961;42.058;25.586;2023-07-20T00:15:34;99768.63;;;28.02;59.49
7832;BME280;3961;42.058;25.586;2023-07-20T00:17:59;99760.81;;;27.96;60.29
7832;BME280;3961;42.058;25.586;2023-07-20T00:20:25;99762.97;;;27.57;61.53
7832;BME280;3961;42.058;25.586;2023-07-20T00:22:51;99759.06;;;27.29;62.98
7832;BME280;3961;42.058;25.586;2023-07-20T00:25:17;99759.63;;;27.22;63.25
7832;BME280;3961;42.058;25.586;2023-07-20T00:27:43;99758.78;;;27.22;63.65
7832;BME280;3961;42.058;25.586;2023-07-20T00:30:09;99762.47;;;27.35;63.60
7832;BME280;3961;42.058;25.586;2023-07-20T00:32:35;99771.97;;;27.42;64.00
7832;BME280;3961;42.058;25.586;2023-07-20T00:35:00;99818.69;;;27.50;64.35
7832;BME280;3961;42.058;25.586;2023-07-20T00:37:26;99880.81;;;27.44;63.85
7832;BME280;3961;42.058;25.586;2023-07-20T00:39:53;99905.38;;;27.00;65.54
7832;BME280;3961;42.058;25.586;2023-07-20T00:42:18;99904.63;;;26.74;65.67
7832;BME280;3961;42.058;25.586;2023-07-20T00:44:44;99884.41;;;26.68;65.36
7832;BME280;3961;42.058;25.586;2023-07-20T00:47:09;99903.31;;;26.71;64.92
7832;BME280;3961;42.058;25.586;2023-07-20T00:49:35;99935.53;;;26.77;65.42
7832;BME280;3961;42.058;25.586;2023-07-20T00:52:03;99956.75;;;26.87;64.80
7832;BME280;3961;42.058;25.586;2023-07-20T00:54:29;99948.34;;;26.87;64.49
7832;BME280;3961;42.058;25.586;2023-07-20T00:56:55;99918.84;;;26.43;66.53
7832;BME280;3961;42.058;25.586;2023-07-20T00:59:21;99905.19;;;26.16;66.80
7832;BME280;3961;42.058;25.586;2023-07-20T01:01:47;99879.06;;;26.12;67.11
7832;BME280;3961;42.058;25.586;2023-07-20T01:04:13;99854.59;;;26.00;68.13
7832;BME280;3961;42.058;25.586;2023-07-20T01:06:47;99846.38;;;25.95;68.67
7832;BME280;3961;42.058;25.586;2023-07-20T01:09:19;99836.16;;;26.16;68.24
7832;BME280;3961;42.058;25.586;2023-07-20T01:12:05;99828.13;;;26.32;67.78
7832;BME280;3961;42.058;25.586;2023-07-20T01:14:34;99810.34;;;26.36;67.34
7832;BME280;3961;42.058;25.586;2023-07-20T01:17:00;99813.31;;;26.31;67.27
7832;BME280;3961;42.058;25.586;2023-07-20T01:19:26;99805.44;;;26.25;67.69
7832;BME280;3961;42.058;25.586;2023-07-20T01:28:03;99799.47;;;26.43;66.70
7832;BME280;3961;42.058;25.586;2023-07-20T01:33:05;99805.25;;;26.30;67.81
7832;BME280;3961;42.058;25.586;2023-07-20T01:35:32;99814.28;;;26.35;68.11
7832;BME280;3961;42.058;25.586;2023-07-20T01:38:00;99807.91;;;26.26;68.43
7832;BME280;3961;42.058;25.586;2023-07-20T01:40:26;99798.53;;;26.14;69.09
7832;BME280;3961;42.058;25.586;2023-07-20T01:42:52;99792.28;;;26.08;69.47
7832;BME280;3961;42.058;25.586;2023-07-20T01:45:19;99803.47;;;26.17;69.69
7832;BME280;3961;42.058;25.586;2023-07-20T01:47:44;99801.81;;;26.24;69.25
7832;BME280;3961;42.058;25.586;2023-07-20T01:50:10;99800.50;;;26.22;69.10
7832;BME280;3961;42.058;25.586;2023-07-20T01:52:35;99805.75;;;26.32;68.58
7832;BME280;3961;42.058;25.586;2023-07-20T01:55:01;99780.78;;;26.27;68.36
7832;BME280;3961;42.058;25.586;2023-07-20T01:57:26;99754.31;;;26.24;68.46
7832;BME280;3961;42.058;25.586;2023-07-20T01:59:52;99752.84;;;26.27;68.29
7832;BME280;3961;42.058;25.586;2023-07-20T02:02:18;99747.25;;;26.27;68.38
7832;BME280;3961;42.058;25.586;2023-07-20T02:04:43;99753.94;;;26.43;68.17
7832;BME280;3961;42.058;25.586;2023-07-20T02:07:09;99763.75;;;26.58;67.48
7832;BME280;3961;42.058;25.586;2023-07-20T02:09:34;99771.56;;;26.73;67.04
7832;BME280;3961;42.058;25.586;2023-07-20T02:12:00;99757.88;;;26.80;66.68
7832;BME280;3961;42.058;25.586;2023-07-20T02:14:25;99754.06;;;26.84;66.81
7832;BME280;3961;42.058;25.586;2023-07-20T02:16:51;99755.38;;;26.87;67.01
7832;BME280;3961;42.058;25.586;2023-07-20T02:19:18;99768.50;;;26.57;67.73
7832;BME280;3961;42.058;25.586;2023-07-20T02:21:44;99772.63;;;26.51;68.68
7832;BME280;3961;42.058;25.586;2023-07-20T02:24:09;99760.88;;;26.20;70.00
7832;BME280;3961;42.058;25.586;2023-07-20T02:26:35;99749.75;;;26.11;70.31
7832;BME280;3961;42.058;25.586;2023-07-20T02:29:00;99753.38;;;26.12;69.81
7832;BME280;3961;42.058;25.586;2023-07-20T02:31:29;99750.22;;;26.13;69.37
7832;BME280;3961;42.058;25.586;2023-07-20T02:33:54;99756.44;;;26.19;69.54
7832;BME280;3961;42.058;25.586;2023-07-20T02:36:20;99755.97;;;26.25;68.69
7832;BME280;3961;42.058;25.586;2023-07-20T02:38:45;99762.00;;;26.36;68.37
7832;BME280;3961;42.058;25.586;2023-07-20T02:41:11;99748.34;;;26.43;67.88
7832;BME280;3961;42.058;25.586;2023-07-20T02:43:37;99762.50;;;26.38;67.92
7832;BME280;3961;42.058;25.586;2023-07-20T02:46:02;99776.94;;;26.40;68.05
7832;BME280;3961;42.058;25.586;2023-07-20T02:48:28;99783.22;;;26.37;68.78
7832;BME280;3961;42.058;25.586;2023-07-20T02:50:53;99787.50;;;26.34;69.33
7832;BME280;3961;42.058;25.586;2023-07-20T02:53:19;99789.16;;;26.18;69.83
7832;BME280;3961;42.058;25.586;2023-07-20T02:55:44;99753.44;;;25.60;71.79
7832;BME280;3961;42.058;25.586;2023-07-20T02:58:10;99799.91;;;25.73;72.36
7832;BME280;3961;42.058;25.586;2023-07-20T03:00:35;99803.63;;;25.34;74.77
7832;BME280;3961;42.058;25.586;2023-07-20T03:03:01;99809.38;;;25.38;75.63
7832;BME280;3961;42.058;25.586;2023-07-20T03:05:27;99808.53;;;25.29;76.15
7832;BME280;3961;42.058;25.586;2023-07-20T03:07:53;99797.38;;;25.29;76.69
7832;BME280;3961;42.058;25.586;2023-07-20T03:10:18;99794.75;;;25.23;77.26
7832;BME280;3961;42.058;25.586;2023-07-20T03:12:44;99802.94;;;25.20;77.05
7832;BME280;3961;42.058;25.586;2023-07-20T03:15:10;99811.78;;;25.13;76.64
7832;BME280;3961;42.058;25.586;2023-07-20T03:17:35;99805.38;;;25.04;76.34
7832;BME280;3961;42.058;25.586;2023-07-20T03:20:01;99816.22;;;25.14;76.48
7832;BME280;3961;42.058;25.586;2023-07-20T03:22:26;99801.97;;;25.24;75.78
7832;BME280;3961;42.058;25.586;2023-07-20T03:24:53;99822.00;;;25.27;75.61
7832;BME280;3961;42.058;25.586;2023-07-20T03:27:18;99812.50;;;25.36;75.16
7832;BME280;3961;42.058;25.586;2023-07-20T03:29:44;99815.03;;;25.63;74.37
7832;BME280;3961;42.058;25.586;2023-07-20T03:32:10;99816.47;;;25.78;73.76
7832;BME280;3961;42.058;25.586;2023-07-20T03:34:36;99820.41;;;25.86;72.99
7832;BME280;3961;42.058;25.586;2023-07-20T03:37:01;99823.03;;;25.99;72.01
7832;BME280;3961;42.058;25.586;2023-07-20T03:39:30;99819.59;;;26.11;71.63
7832;BME280;3961;42.058;25.586;2023-07-20T03:41:55;99819.88;;;26.35;69.88
7832;BME280;3961;42.058;25.586;2023-07-20T03:44:21;99804.75;;;26.36;70.25
7832;BME280;3961;42.058;25.586;2023-07-20T03:46:46;99815.66;;;26.67;69.42
7832;BME280;3961;42.058;25.586;2023-07-20T03:49:12;99815.59;;;26.84;69.15
7832;BME280;3961;42.058;25.586;2023-07-20T03:51:37;99816.38;;;26.94;69.02
7832;BME280;3961;42.058;25.586;2023-07-20T03:54:03;99820.63;;;27.00;68.80
7832;BME280;3961;42.058;25.586;2023-07-20T03:56:28;99815.16;;;27.62;66.18
7832;BME280;3961;42.058;25.586;2023-07-20T03:58:54;99811.44;;;28.56;62.28
7832;BME280;3961;42.058;25.586;2023-07-20T04:01:19;99807.63;;;29.86;57.96
7832;BME280;3961;42.058;25.586;2023-07-20T04:03:45;99803.38;;;30.79;54.42
7832;BME280;3961;42.058;25.586;2023-07-20T04:06:10;99796.91;;;31.61;52.02
7832;BME280;3961;42.058;25.586;2023-07-20T04:08:36;99794.22;;;32.06;50.09
7832;BME280;3961;42.058;25.586;2023-07-20T04:11:02;99799.84;;;32.45;48.68
7832;BME280;3961;42.058;25.586;2023-07-20T04:13:28;99795.94;;;33.21;46.74
7832;BME280;3961;42.058;25.586;2023-07-20T04:15:54;99803.81;;;33.65;45.07
7832;BME280;3961;42.058;25.586;2023-07-20T04:18:20;99788.63;;;34.40;43.05
7832;BME280;3961;42.058;25.586;2023-07-20T04:20:46;99783.44;;;35.44;40.83
7832;BME280;3961;42.058;25.586;2023-07-20T04:23:12;99779.22;;;35.92;39.13
7832;BME280;3961;42.058;25.586;2023-07-20T04:25:40;99789.53;;;36.43;38.40
7832;BME280;3961;42.058;25.586;2023-07-20T04:28:07;99786.69;;;36.50;38.10
7832;BME280;3961;42.058;25.586;2023-07-20T04:30:36;99804.75;;;35.92;39.07
7832;BME280;3961;42.058;25.586;2023-07-20T04:33:05;99798.13;;;36.64;37.77
7832;BME280;3961;42.058;25.586;2023-07-20T04:35:50;99800.13;;;37.35;36.56
7832;BME280;3961;42.058;25.586;2023-07-20T04:38:16;99793.06;;;37.96;35.11
7832;BME280;3961;42.058;25.586;2023-07-20T04:40:46;99804.00;;;37.97;35.27
7832;BME280;3961;42.058;25.586;2023-07-20T04:43:15;99794.72;;;37.83;35.60
7832;BME280;3961;42.058;25.586;2023-07-20T04:45:41;99807.63;;;39.26;33.94
7832;BME280;3961;42.058;25.586;2023-07-20T04:48:09;99797.06;;;39.64;33.06
7832;BME280;3961;42.058;25.586;2023-07-20T04:50:36;99801.31;;;40.17;32.25
7832;BME280;3961;42.058;25.586;2023-07-20T04:53:02;99798.56;;;40.09;31.93
7832;BME280;3961;42.058;25.586;2023-07-20T04:55:27;99801.59;;;39.20;32.59
7832;BME280;3961;42.058;25.586;2023-07-20T04:57:53;99797.84;;;39.27;33.21
7832;BME280;3961;42.058;25.586;2023-07-20T05:00:19;99803.19;;;40.00;32.37
7832;BME280;3961;42.058;25.586;2023-07-20T05:02:45;99809.53;;;40.45;31.52
7832;BME280;3961;42.058;25.586;2023-07-20T05:05:12;99801.03;;;41.81;29.45
7832;BME280;3961;42.058;25.586;2023-07-20T05:07:38;99800.16;;;40.71;30.66
7832;BME280;3961;42.058;25.586;2023-07-20T05:10:04;99799.22;;;40.78;29.98
7832;BME280;3961;42.058;25.586;2023-07-20T05:12:30;99793.88;;;40.26;30.51
7832;BME280;3961;42.058;25.586;2023-07-20T05:14:55;99794.84;;;40.43;30.63
7832;BME280;3961;42.058;25.586;2023-07-20T05:17:21;99788.91;;;40.57;30.31
7832;BME280;3961;42.058;25.586;2023-07-20T05:19:46;99789.28;;;40.02;30.82
7832;BME280;3961;42.058;25.586;2023-07-20T05:22:13;99790.00;;;40.09;30.76
7832;BME280;3961;42.058;25.586;2023-07-20T05:24:39;99792.88;;;39.76;31.09
7832;BME280;3961;42.058;25.586;2023-07-20T05:27:05;99785.13;;;41.37;28.86
7832;BME280;3961;42.058;25.586;2023-07-20T05:29:30;99779.97;;;41.71;28.93
7832;BME280;3961;42.058;25.586;2023-07-20T05:31:57;99791.59;;;40.95;29.74
7832;BME280;3961;42.058;25.586;2023-07-20T05:34:22;99785.38;;;40.23;30.67
7832;BME280;3961;42.058;25.586;2023-07-20T05:36:48;99783.13;;;39.36;32.32
7832;BME280;3961;42.058;25.586;2023-07-20T05:39:13;99776.38;;;37.94;33.91
7832;BME280;3961;42.058;25.586;2023-07-20T05:41:39;99766.59;;;37.99;34.33
7832;BME280;3961;42.058;25.586;2023-07-20T05:44:04;99771.31;;;37.26;34.86
7832;BME280;3961;42.058;25.586;2023-07-20T05:46:30;99762.00;;;37.00;35.76
7832;BME280;3961;42.058;25.586;2023-07-20T05:48:55;99770.06;;;36.56;36.93
7832;BME280;3961;42.058;25.586;2023-07-20T05:51:21;99771.25;;;36.33;37.51
7832;BME280;3961;42.058;25.586;2023-07-20T05:53:46;99773.31;;;36.47;37.46
7832;BME280;3961;42.058;25.586;2023-07-20T05:56:13;99778.59;;;36.52;37.25
7832;BME280;3961;42.058;25.586;2023-07-20T05:58:39;99775.25;;;36.11;37.87
7832;BME280;3961;42.058;25.586;2023-07-20T06:01:04;99779.59;;;35.15;39.28
7832;BME280;3961;42.058;25.586;2023-07-20T06:03:32;99766.66;;;34.26;40.63
7832;BME280;3961;42.058;25.586;2023-07-20T06:06:00;99768.88;;;34.10;40.13
7832;BME280;3961;42.058;25.586;2023-07-20T06:08:28;99768.81;;;34.06;40.33
7832;BME280;3961;42.058;25.586;2023-07-20T06:10:54;99760.13;;;33.59;41.23
7832;BME280;3961;42.058;25.586;2023-07-20T06:13:20;99750.88;;;33.05;41.35
7832;BME280;3961;42.058;25.586;2023-07-20T06:15:45;99755.78;;;33.08;42.76
7832;BME280;3961;42.058;25.586;2023-07-20T06:18:12;99763.44;;;32.82;43.90
7832;BME280;3961;42.058;25.586;2023-07-20T06:20:38;99752.25;;;32.89;43.82
7832;BME280;3961;42.058;25.586;2023-07-20T06:23:04;99757.19;;;33.22;43.38
7832;BME280;3961;42.058;25.586;2023-07-20T06:25:29;99755.81;;;33.38;43.06
7832;BME280;3961;42.058;25.586;2023-07-20T06:27:55;99755.78;;;33.35;43.41
7832;BME280;3961;42.058;25.586;2023-07-20T06:30:21;99747.97;;;33.25;43.61
7832;BME280;3961;42.058;25.586;2023-07-20T06:32:47;99750.66;;;32.91;44.42
7832;BME280;3961;42.058;25.586;2023-07-20T06:35:13;99741.72;;;32.86;44.82
7832;BME280;3961;42.058;25.586;2023-07-20T06:37:38;99736.56;;;33.47;44.03
7832;BME280;3961;42.058;25.586;2023-07-20T06:40:05;99728.50;;;33.76;42.67
7832;BME280;3961;42.058;25.586;2023-07-20T06:42:30;99734.66;;;33.85;41.98
7832;BME280;3961;42.058;25.586;2023-07-20T06:44:57;99739.84;;;34.16;41.86
7832;BME280;3961;42.058;25.586;2023-07-20T06:47:23;99740.88;;;34.01;41.52
7832;BME280;3961;42.058;25.586;2023-07-20T06:49:48;99745.97;;;34.22;40.90
7832;BME280;3961;42.058;25.586;2023-07-20T06:52:15;99738.78;;;34.28;40.32
7832;BME280;3961;42.058;25.586;2023-07-20T06:54:40;99745.66;;;33.93;41.01
7832;BME280;3961;42.058;25.586;2023-07-20T06:57:06;99745.13;;;33.51;41.83
7832;BME280;3961;42.058;25.586;2023-07-20T06:59:31;99743.59;;;33.57;42.75
7832;BME280;3961;42.058;25.586;2023-07-20T07:01:57;99739.06;;;33.82;41.10
7832;BME280;3961;42.058;25.586;2023-07-20T07:04:22;99730.13;;;34.14;41.36
7832;BME280;3961;42.058;25.586;2023-07-20T07:13:17;99712.97;;;35.42;37.93
7832;BME280;3961;42.058;25.586;2023-07-20T07:15:42;99731.25;;;35.55;38.79
7832;BME280;3961;42.058;25.586;2023-07-20T07:18:08;99730.88;;;35.64;37.88
7832;BME280;3961;42.058;25.586;2023-07-20T07:20:33;99731.75;;;35.75;37.89
7832;BME280;3961;42.058;25.586;2023-07-20T07:22:59;99727.75;;;35.83;37.50
7832;BME280;3961;42.058;25.586;2023-07-20T07:25:26;99725.19;;;35.61;37.38
7832;BME280;3961;42.058;25.586;2023-07-20T07:27:53;99717.50;;;35.57;38.14
7832;BME280;3961;42.058;25.586;2023-07-20T07:30:19;99716.66;;;35.50;37.98
7832;BME280;3961;42.058;25.586;2023-07-20T07:32:45;99722.31;;;35.50;38.50
7832;BME280;3961;42.058;25.586;2023-07-20T07:35:10;99709.28;;;35.38;37.86
7832;BME280;3961;42.058;25.586;2023-07-20T07:37:37;99723.47;;;35.38;38.75
7832;BME280;3961;42.058;25.586;2023-07-20T07:40:03;99725.34;;;35.16;38.09
7832;BME280;3961;42.058;25.586;2023-07-20T07:42:29;99713.41;;;34.83;39.44
7832;BME280;3961;42.058;25.586;2023-07-20T07:44:54;99712.22;;;34.87;39.37
7832;BME280;3961;42.058;25.586;2023-07-20T07:47:20;99715.41;;;34.38;40.34
7832;BME280;3961;42.058;25.586;2023-07-20T07:49:45;99701.84;;;34.14;40.61
7832;BME280;3961;42.058;25.586;2023-07-20T07:52:11;99704.91;;;34.39;40.42
7832;BME280;3961;42.058;25.586;2023-07-20T07:54:36;99715.50;;;34.45;40.43
7832;BME280;3961;42.058;25.586;2023-07-20T07:57:02;99707.38;;;34.91;39.78
7832;BME280;3961;42.058;25.586;2023-07-20T07:59:27;99716.66;;;35.50;39.22
7832;BME280;3961;42.058;25.586;2023-07-20T08:01:53;99710.59;;;35.55;38.81
7832;BME280;3961;42.058;25.586;2023-07-20T08:04:18;99720.44;;;35.82;38.60
7832;BME280;3961;42.058;25.586;2023-07-20T08:06:44;99714.50;;;36.16;37.98
7832;BME280;3961;42.058;25.586;2023-07-20T08:09:10;99718.13;;;36.23;37.58
7832;BME280;3961;42.058;25.586;2023-07-20T08:11:35;99703.53;;;36.60;35.78
7832;BME280;3961;42.058;25.586;2023-07-20T08:14:01;99680.06;;;36.67;35.58
7832;BME280;3961;42.058;25.586;2023-07-20T08:16:27;99711.25;;;36.92;35.20
7832;BME280;3961;42.058;25.586;2023-07-20T08:18:53;99705.19;;;37.11;34.61
7832;BME280;3961;42.058;25.586;2023-07-20T08:21:18;99716.06;;;37.37;34.55
7832;BME280;3961;42.058;25.586;2023-07-20T08:23:44;99717.66;;;37.42;32.50
7832;BME280;3961;42.058;25.586;2023-07-20T08:26:09;99706.28;;;37.45;32.51
7832;BME280;3961;42.058;25.586;2023-07-20T08:28:35;99710.38;;;37.34;32.44
7832;BME280;3961;42.058;25.586;2023-07-20T08:31:00;99711.56;;;37.40;33.09
7832;BME280;3961;42.058;25.586;2023-07-20T08:33:26;99710.69;;;37.60;32.32
7832;BME280;3961;42.058;25.586;2023-07-20T08:35:55;99699.50;;;37.11;33.07
7832;BME280;3961;42.058;25.586;2023-07-20T08:38:21;99694.25;;;36.85;33.12
7832;BME280;3961;42.058;25.586;2023-07-20T08:40:47;99688.09;;;37.07;33.76
7832;BME280;3961;42.058;25.586;2023-07-20T08:43:14;99694.06;;;37.52;33.51
7832;BME280;3961;42.058;25.586;2023-07-20T08:45:45;99678.19;;;37.61;32.51
7832;BME280;3961;42.058;25.586;2023-07-20T08:48:11;99687.91;;;37.75;32.95
7832;BME280;3961;42.058;25.586;2023-07-20T08:50:38;99686.97;;;37.95;32.15
7832;BME280;3961;42.058;25.586;2023-07-20T08:53:03;99678.38;;;38.02;31.47
7832;BME280;3961;42.058;25.586;2023-07-20T08:55:30;99693.69;;;38.26;31.66
7832;BME280;3961;42.058;25.586;2023-07-20T08:57:57;99694.53;;;38.20;32.02
7832;BME280;3961;42.058;25.586;2023-07-20T09:00:24;99694.53;;;38.20;31.51
7832;BME280;3961;42.058;25.586;2023-07-20T09:02:52;99685.09;;;38.33;31.29
7832;BME280;3961;42.058;25.586;2023-07-20T09:05:18;99691.25;;;38.25;31.67
7832;BME280;3961;42.058;25.586;2023-07-20T09:07:44;99680.78;;;38.08;31.87
7832;BME280;3961;42.058;25.586;2023-07-20T09:10:10;99682.47;;;38.01;31.14
7832;BME280;3961;42.058;25.586;2023-07-20T09:12:43;99692.91;;;38.19;31.59
7832;BME280;3961;42.058;25.586;2023-07-20T09:15:10;99695.22;;;38.34;31.04
7832;BME280;3961;42.058;25.586;2023-07-20T09:17:37;99698.63;;;38.15;31.39
7832;BME280;3961;42.058;25.586;2023-07-20T09:20:08;99692.56;;;38.10;31.74
7832;BME280;3961;42.058;25.586;2023-07-20T09:22:38;99692.63;;;37.99;31.21
7832;BME280;3961;42.058;25.586;2023-07-20T09:25:14;99689.28;;;38.15;31.37
7832;BME280;3961;42.058;25.586;2023-07-20T09:27:44;99682.97;;;38.41;31.08
7832;BME280;3961;42.058;25.586;2023-07-20T09:30:11;99675.84;;;38.70;30.72
7832;BME280;3961;42.058;25.586;2023-07-20T09:32:46;99669.13;;;38.87;30.38
7832;BME280;3961;42.058;25.586;2023-07-20T09:35:22;99665.44;;;38.94;30.47
7832;BME280;3961;42.058;25.586;2023-07-20T09:38:01;99664.69;;;38.86;30.86
7832;BME280;3961;42.058;25.586;2023-07-20T09:40:27;99660.31;;;39.16;30.50
7832;BME280;3961;42.058;25.586;2023-07-20T09:42:54;99662.22;;;39.26;30.93
7832;BME280;3961;42.058;25.586;2023-07-20T09:45:35;99650.69;;;39.03;30.12
7832;BME280;3961;42.058;25.586;2023-07-20T09:48:05;99640.00;;;39.10;30.47
7832;BME280;3961;42.058;25.586;2023-07-20T09:50:33;99648.00;;;38.40;30.25
7832;BME280;3961;42.058;25.586;2023-07-20T09:53:00;99616.50;;;37.44;31.34
7832;BME280;3961;42.058;25.586;2023-07-20T09:55:29;99636.06;;;37.32;32.19
7832;BME280;3961;42.058;25.586;2023-07-20T09:57:55;99616.50;;;37.48;32.13
7832;BME280;3961;42.058;25.586;2023-07-20T10:00:21;99611.75;;;37.93;32.76
7832;BME280;3961;42.058;25.586;2023-07-20T10:02:49;99603.13;;;38.11;32.21
7832;BME280;3961;42.058;25.586;2023-07-20T10:05:17;99609.34;;;38.43;31.16
7832;BME280;3961;42.058;25.586;2023-07-20T10:07:48;99618.78;;;38.77;30.68
7832;BME280;3961;42.058;25.586;2023-07-20T10:10:15;99609.81;;;38.79;30.49
7832;BME280;3961;42.058;25.586;2023-07-20T10:12:43;99616.25;;;38.86;31.65
7832;BME280;3961;42.058;25.586;2023-07-20T10:15:18;99609.59;;;39.00;30.32
7832;BME280;3961;42.058;25.586;2023-07-20T10:18:10;99614.28;;;39.17;29.67
7832;BME280;3961;42.058;25.586;2023-07-20T10:20:40;99597.69;;;38.71;29.47
7832;BME280;3961;42.058;25.586;2023-07-20T10:23:07;99591.09;;;38.37;30.28
7832;BME280;3961;42.058;25.586;2023-07-20T10:25:33;99576.72;;;38.55;30.68
7832;BME280;3961;42.058;25.586;2023-07-20T10:28:04;99571.91;;;38.48;29.90
7832;BME280;3961;42.058;25.586;2023-07-20T10:30:35;99569.78;;;38.08;30.00
7832;BME280;3961;42.058;25.586;2023-07-20T10:33:05;99562.56;;;37.96;30.76
7832;BME280;3961;42.058;25.586;2023-07-20T10:35:51;99567.16;;;38.31;30.86
7832;BME280;3961;42.058;25.586;2023-07-20T10:38:17;99575.16;;;38.84;29.77
7832;BME280;3961;42.058;25.586;2023-07-20T10:40:42;99566.00;;;39.03;29.20
7832;BME280;3961;42.058;25.586;2023-07-20T10:43:09;99551.19;;;38.44;29.41
7832;BME280;3961;42.058;25.586;2023-07-20T10:45:52;99555.94;;;38.13;30.37
7832;BME280;3961;42.058;25.586;2023-07-20T10:48:24;99554.34;;;38.09;29.42
7832;BME280;3961;42.058;25.586;2023-07-20T10:51:12;99547.91;;;38.49;30.39
7832;BME280;3961;42.058;25.586;2023-07-20T10:53:41;99543.66;;;38.98;29.40
7832;BME280;3961;42.058;25.586;2023-07-20T10:56:14;99551.63;;;39.44;28.92
7832;BME280;3961;42.058;25.586;2023-07-20T10:58:41;99548.56;;;39.85;28.59
7832;BME280;3961;42.058;25.586;2023-07-20T11:01:13;99547.47;;;39.76;28.10
7832;BME280;3961;42.058;25.586;2023-07-20T11:03:39;99536.41;;;39.54;28.24
7832;BME280;3961;42.058;25.586;2023-07-20T11:09:10;99541.34;;;39.77;28.32
7832;BME280;3961;42.058;25.586;2023-07-20T11:11:39;99531.63;;;39.98;27.93
7832;BME280;3961;42.058;25.586;2023-07-20T11:14:07;99531.13;;;39.22;28.67
7832;BME280;3961;42.058;25.586;2023-07-20T11:18:59;99529.34;;;39.32;28.91
7832;BME280;3961;42.058;25.586;2023-07-20T11:21:24;99508.41;;;38.81;28.89
7832;BME280;3961;42.058;25.586;2023-07-20T11:23:52;99511.84;;;38.69;29.20
7832;BME280;3961;42.058;25.586;2023-07-20T11:26:17;99511.09;;;38.99;29.66
7832;BME280;3961;42.058;25.586;2023-07-20T11:28:43;99507.53;;;39.18;29.03
7832;BME280;3961;42.058;25.586;2023-07-20T11:31:09;99502.47;;;39.03;29.17
7832;BME280;3961;42.058;25.586;2023-07-20T11:33:34;99471.13;;;39.03;28.46
7832;BME280;3961;42.058;25.586;2023-07-20T11:36:00;99487.63;;;39.45;28.43
7832;BME280;3961;42.058;25.586;2023-07-20T11:38:25;99484.16;;;39.84;28.00
7832;BME280;3961;42.058;25.586;2023-07-20T11:40:51;99489.69;;;39.95;27.08
7832;BME280;3961;42.058;25.586;2023-07-20T11:43:16;99473.84;;;40.14;27.90
7832;BME280;3961;42.058;25.586;2023-07-20T11:45:44;99473.09;;;40.33;26.59
7832;BME280;3961;42.058;25.586;2023-07-20T11:48:16;99461.16;;;40.38;26.32
7832;BME280;3961;42.058;25.586;2023-07-20T11:50:42;99461.69;;;40.33;26.75
7832;BME280;3961;42.058;25.586;2023-07-20T11:53:08;99459.41;;;40.44;26.58
7832;BME280;3961;42.058;25.586;2023-07-20T11:55:34;99438.19;;;40.45;26.27
7832;BME280;3961;42.058;25.586;2023-07-20T11:58:07;99440.16;;;40.28;26.38
7832;BME280;3961;42.058;25.586;2023-07-20T12:00:33;99454.63;;;39.94;27.51
7832;BME280;3961;42.058;25.586;2023-07-20T12:03:00;99468.34;;;39.26;27.97
7832;BME280;3961;42.058;25.586;2023-07-20T12:05:25;99454.50;;;38.98;28.83
7832;BME280;3961;42.058;25.586;2023-07-20T12:07:51;99446.06;;;38.91;28.49
7832;BME280;3961;42.058;25.586;2023-07-20T12:10:24;99446.25;;;39.07;28.50
7832;BME280;3961;42.058;25.586;2023-07-20T12:12:50;99426.25;;;39.37;28.68
7832;BME280;3961;42.058;25.586;2023-07-20T12:15:24;99439.41;;;39.27;28.37
7832;BME280;3961;42.058;25.586;2023-07-20T12:18:02;99430.44;;;39.02;28.41
7832;BME280;3961;42.058;25.586;2023-07-20T12:20:36;99423.41;;;38.80;28.56
7832;BME280;3961;42.058;25.586;2023-07-20T12:23:04;99416.09;;;38.79;27.81
7832;BME280;3961;42.058;25.586;2023-07-20T12:25:41;99404.16;;;38.87;28.31
7832;BME280;3961;42.058;25.586;2023-07-20T12:28:17;99406.63;;;38.85;27.56
7832;BME280;3961;42.058;25.586;2023-07-20T12:30:44;99404.81;;;38.99;27.83
7832;BME280;3961;42.058;25.586;2023-07-20T12:33:09;99398.72;;;39.00;28.11
7832;BME280;3961;42.058;25.586;2023-07-20T12:35:35;99408.59;;;39.19;27.46
7832;BME280;3961;42.058;25.586;2023-07-20T12:38:01;99413.97;;;39.13;27.40
7832;BME280;3961;42.058;25.586;2023-07-20T12:40:26;99407.81;;;38.88;27.82
7832;BME280;3961;42.058;25.586;2023-07-20T12:42:52;99414.00;;;38.53;29.04
7832;BME280;3961;42.058;25.586;2023-07-20T12:45:17;99421.44;;;38.73;29.05
7832;BME280;3961;42.058;25.586;2023-07-20T12:47:43;99413.69;;;39.04;28.29
7832;BME280;3961;42.058;25.586;2023-07-20T12:53:49;99422.84;;;39.92;27.02
7832;BME280;3961;42.058;25.586;2023-07-20T12:56:15;99424.94;;;40.12;27.08
7832;BME280;3961;42.058;25.586;2023-07-20T12:58:41;99408.56;;;40.16;27.27
7832;BME280;3961;42.058;25.586;2023-07-20T13:01:06;99411.38;;;40.39;26.55
7832;BME280;3961;42.058;25.586;2023-07-20T13:03:32;99418.38;;;39.68;27.16
7832;BME280;3961;42.058;25.586;2023-07-20T13:05:57;99407.09;;;39.61;27.28
7832;BME280;3961;42.058;25.586;2023-07-20T13:08:23;99399.72;;;39.13;27.33
7832;BME280;3961;42.058;25.586;2023-07-20T13:10:50;99405.22;;;38.70;28.35
7832;BME280;3961;42.058;25.586;2023-07-20T13:13:16;99404.34;;;38.73;28.58
7832;BME280;3961;42.058;25.586;2023-07-20T13:15:44;99402.78;;;38.99;28.63
7832;BME280;3961;42.058;25.586;2023-07-20T13:18:10;99387.34;;;39.23;27.63
7832;BME280;3961;42.058;25.586;2023-07-20T13:20:35;99380.13;;;39.65;27.80
7832;BME280;3961;42.058;25.586;2023-07-20T13:23:00;99376.72;;;39.74;27.50
7832;BME280;3961;42.058;25.586;2023-07-20T13:25:26;99378.75;;;39.74;27.64
7832;BME280;3961;42.058;25.586;2023-07-20T13:27:53;99381.41;;;39.61;28.01
7832;BME280;3961;42.058;25.586;2023-07-20T13:30:18;99366.38;;;39.60;28.03
7832;BME280;3961;42.058;25.586;2023-07-20T13:32:44;99352.03;;;39.64;28.76